Time;durP1;ratioP1;P1;durP2;ratioP2;P2;SDS_P1;SDS_P2;PMS_P1;PMS_P2;Temp;Humidity;BMP_temperature;BMP_pressure;BME280_temperature;BME280_humidity;BME280_pressure;Samples;Min_cycle;Max_cycle;Signal;HPM_P1;HPM_P2
2021/01/01 00:02:19;;;;;;;11.5;5.6;;;;;;;;;;;;;
2021/01/01 00:04:45;;;;;;;31;16.2;;;;;;;;;;;;;
2021/01/01 00:07:10;;;;;;;11.9;6.6;;;;;;;;;;;;;
2021/01/01 00:09:35;;;;;;;24.9;10.5;;;;;;;;;;;;;
2021/01/01 00:12:00;;;;;;;10.7;6.7;;;;;;;;;;;;;
2021/01/01 00:14:25;;;;;;;11;5.6;;;;;;;;;;;;;
2021/01/01 00:16:50;;;;;;;13.3;6.7;;;;;;;;;;;;;
2021/01/01 00:19:17;;;;;;;11.1;6.3;;;;;;;;;;;;;
2021/01/01 00:21:43;;;;;;;12.1;5.2;;;;;;;;;;;;;
2021/01/01 00:24:10;;;;;;;14.4;8.1;;;;;;;;;;;;;
2021/01/01 00:26:36;;;;;;;19.5;8.7;;;;;;;;;;;;;
2021/01/01 00:29:01;;;;;;;18.5;9.8;;;;;;;;;;;;;
2021/01/01 00:31:26;;;;;;;14.6;7;;;;;;;;;;;;;
2021/01/01 00:33:51;;;;;;;26.8;15.5;;;;;;;;;;;;;
2021/01/01 00:36:17;;;;;;;17.7;7.7;;;;;;;;;;;;;
2021/01/01 00:38:46;;;;;;;12.3;6.7;;;;;;;;;;;;;
2021/01/01 00:41:07;;;;;;;17.6;9;;;;;;;;;;;;;
2021/01/01 00:43:33;;;;;;;12.8;5;;;;;;;;;;;;;
2021/01/01 00:45:57;;;;;;;11.8;6.3;;;;;;;;;;;;;
2021/01/01 00:48:23;;;;;;;25.4;10;;;;;;;;;;;;;
2021/01/01 00:50:48;;;;;;;52.4;20.5;;;;;;;;;;;;;
2021/01/01 00:53:13;;;;;;;95.9;36.9;;;;;;;;;;;;;
2021/01/01 00:55:39;;;;;;;13.5;6.9;;;;;;;;;;;;;
2021/01/01 00:58:04;;;;;;;12.5;6.5;;;;;;;;;;;;;
2021/01/01 01:00:35;;;;;;;9.5;4.7;;;;;;;;;;;;;
2021/01/01 01:03:02;;;;;;;8.3;3.6;;;;;;;;;;;;;
2021/01/01 01:05:27;;;;;;;8.9;4.4;;;;;;;;;;;;;
2021/01/01 01:07:53;;;;;;;2.6;2.3;;;;;;;;;;;;;
2021/01/01 01:10:18;;;;;;;5.3;3.5;;;;;;;;;;;;;
2021/01/01 01:12:43;;;;;;;4.7;3.3;;;;;;;;;;;;;
2021/01/01 01:15:08;;;;;;;13.9;4.3;;;;;;;;;;;;;
2021/01/01 01:17:33;;;;;;;5;3.7;;;;;;;;;;;;;
2021/01/01 01:19:59;;;;;;;10.6;5;;;;;;;;;;;;;
2021/01/01 01:22:24;;;;;;;11.2;4.4;;;;;;;;;;;;;
2021/01/01 01:24:49;;;;;;;8.2;5.3;;;;;;;;;;;;;
2021/01/01 01:27:15;;;;;;;6.6;4.2;;;;;;;;;;;;;
2021/01/01 01:29:41;;;;;;;5.6;3.9;;;;;;;;;;;;;
2021/01/01 01:32:07;;;;;;;7.1;4;;;;;;;;;;;;;
2021/01/01 01:34:32;;;;;;;5.8;3.7;;;;;;;;;;;;;
2021/01/01 01:36:57;;;;;;;6.5;3.3;;;;;;;;;;;;;
2021/01/01 01:39:22;;;;;;;12.1;5.9;;;;;;;;;;;;;
2021/01/01 01:41:49;;;;;;;6.2;3;;;;;;;;;;;;;
2021/01/01 01:44:14;;;;;;;2.6;2.2;;;;;;;;;;;;;
2021/01/01 01:46:40;;;;;;;3;2.2;;;;;;;;;;;;;
2021/01/01 01:49:06;;;;;;;5.1;2.8;;;;;;;;;;;;;
2021/01/01 01:51:31;;;;;;;5.5;3.7;;;;;;;;;;;;;
2021/01/01 01:53:56;;;;;;;6.4;2.9;;;;;;;;;;;;;
2021/01/01 01:56:21;;;;;;;4.2;2.4;;;;;;;;;;;;;
2021/01/01 01:58:46;;;;;;;5.6;2.9;;;;;;;;;;;;;
2021/01/01 02:01:12;;;;;;;7.2;3;;;;;;;;;;;;;
2021/01/01 02:03:37;;;;;;;4;2.4;;;;;;;;;;;;;
2021/01/01 02:06:02;;;;;;;5.7;3;;;;;;;;;;;;;
2021/01/01 02:08:27;;;;;;;7.2;3.7;;;;;;;;;;;;;
2021/01/01 02:10:52;;;;;;;5.6;2.9;;;;;;;;;;;;;
2021/01/01 02:13:18;;;;;;;4.6;2.4;;;;;;;;;;;;;
2021/01/01 02:15:43;;;;;;;3;2;;;;;;;;;;;;;
2021/01/01 02:18:08;;;;;;;9.6;2.4;;;;;;;;;;;;;
2021/01/01 02:20:33;;;;;;;6.8;2.7;;;;;;;;;;;;;
2021/01/01 02:22:58;;;;;;;4.1;2.8;;;;;;;;;;;;;
2021/01/01 02:25:23;;;;;;;6.9;3.3;;;;;;;;;;;;;
2021/01/01 02:27:48;;;;;;;4.1;2.3;;;;;;;;;;;;;
2021/01/01 02:30:16;;;;;;;4.5;3.2;;;;;;;;;;;;;
2021/01/01 02:32:41;;;;;;;2.7;1.9;;;;;;;;;;;;;
2021/01/01 02:35:08;;;;;;;3.8;2.1;;;;;;;;;;;;;
2021/01/01 02:37:34;;;;;;;3.5;2.1;;;;;;;;;;;;;
2021/01/01 02:39:59;;;;;;;5.2;2.7;;;;;;;;;;;;;
2021/01/01 02:42:24;;;;;;;4.7;2.6;;;;;;;;;;;;;
2021/01/01 02:44:49;;;;;;;4.5;2.4;;;;;;;;;;;;;
2021/01/01 02:47:14;;;;;;;2.4;2.2;;;;;;;;;;;;;
2021/01/01 02:49:39;;;;;;;1.9;1.6;;;;;;;;;;;;;
2021/01/01 02:52:04;;;;;;;4.1;1.7;;;;;;;;;;;;;
2021/01/01 02:54:30;;;;;;;3.7;2.3;;;;;;;;;;;;;
2021/01/01 02:56:55;;;;;;;3.2;1.7;;;;;;;;;;;;;
2021/01/01 02:59:21;;;;;;;4.6;2.6;;;;;;;;;;;;;
2021/01/01 03:01:47;;;;;;;2.7;1.8;;;;;;;;;;;;;
2021/01/01 03:04:12;;;;;;;5.4;2.6;;;;;;;;;;;;;
2021/01/01 03:06:37;;;;;;;2.9;2.3;;;;;;;;;;;;;
2021/01/01 03:09:02;;;;;;;5.6;3.2;;;;;;;;;;;;;
2021/01/01 03:11:28;;;;;;;3.7;2.7;;;;;;;;;;;;;
2021/01/01 03:13:53;;;;;;;5.2;3.2;;;;;;;;;;;;;
2021/01/01 03:16:18;;;;;;;4.3;2.7;;;;;;;;;;;;;
2021/01/01 03:18:43;;;;;;;2.3;1.7;;;;;;;;;;;;;
2021/01/01 03:21:09;;;;;;;5.4;2.1;;;;;;;;;;;;;
2021/01/01 03:23:34;;;;;;;2.2;1.8;;;;;;;;;;;;;
2021/01/01 03:26:00;;;;;;;3.2;1.8;;;;;;;;;;;;;
2021/01/01 03:28:25;;;;;;;2.3;1.8;;;;;;;;;;;;;
2021/01/01 03:30:52;;;;;;;2;1.4;;;;;;;;;;;;;
2021/01/01 03:33:17;;;;;;;6.5;1.8;;;;;;;;;;;;;
2021/01/01 03:35:43;;;;;;;3.9;1.1;;;;;;;;;;;;;
2021/01/01 03:38:08;;;;;;;5.9;2.9;;;;;;;;;;;;;
2021/01/01 03:40:33;;;;;;;4;2.2;;;;;;;;;;;;;
2021/01/01 03:42:58;;;;;;;1.7;1.2;;;;;;;;;;;;;
2021/01/01 03:45:24;;;;;;;1.3;1;;;;;;;;;;;;;
2021/01/01 03:47:49;;;;;;;2.6;1.4;;;;;;;;;;;;;
2021/01/01 03:50:14;;;;;;;2.4;1.8;;;;;;;;;;;;;
2021/01/01 03:52:39;;;;;;;5.1;2.1;;;;;;;;;;;;;
2021/01/01 03:55:04;;;;;;;2.2;1.4;;;;;;;;;;;;;
2021/01/01 03:57:30;;;;;;;2.5;1.5;;;;;;;;;;;;;
2021/01/01 03:59:55;;;;;;;2.4;1.2;;;;;;;;;;;;;
2021/01/01 04:02:30;;;;;;;1.4;1.3;;;;;;;-1.9;77.83594;925.5463;;;;
2021/01/01 04:04:55;;;;;;;1.7;1.2;;;;;;;-1.86;77.94238;925.5153;;;;
2021/01/01 04:07:20;;;;;;;3.7;1.6;;;;;;;-1.85;78.03418;925.5143;;;;
2021/01/01 04:09:47;;;;;;;4.6;1.3;;;;;;;-2;78.31641;925.5271;;;;
2021/01/01 04:12:12;;;;;;;3.4;2;;;;;;;-2.23;79.18262;925.5036;;;;
2021/01/01 04:14:40;;;;;;;3.1;1.2;;;;;;;-2.32;79.97266;925.5555;;;;
2021/01/01 04:17:05;;;;;;;2.4;1.3;;;;;;;-2.28;80.125;925.6069;;;;
2021/01/01 04:19:34;;;;;;;0.7;0.7;;;;;;;-2.41;80.93164;925.5854;;;;
2021/01/01 04:21:59;;;;;;;1.6;1;;;;;;;-2.5;81.29102;925.5621;;;;
2021/01/01 04:24:24;;;;;;;0.8;0.8;;;;;;;-2.62;81.2666;925.4763;;;;
2021/01/01 04:26:49;;;;;;;1.7;0.9;;;;;;;-2.25;80.55176;925.4086;;;;
2021/01/01 04:29:17;;;;;;;1.1;0.7;;;;;;;-2.18;80.23242;925.5506;;;;
2021/01/01 04:31:41;;;;;;;2.1;1.2;;;;;;;-2.16;79.95898;925.6085;;;;
2021/01/01 04:34:08;;;;;;;3.3;1.2;;;;;;;-2.16;80.13672;925.5764;;;;
2021/01/01 04:36:34;;;;;;;3.3;0.6;;;;;;;-2.22;80.82422;925.4985;;;;
2021/01/01 04:39:00;;;;;;;0.5;0.5;;;;;;;-2.1;80.00488;925.5707;;;;
2021/01/01 04:41:26;;;;;;;0.4;0.4;;;;;;;-2.07;80.00977;925.557;;;;
2021/01/01 04:43:53;;;;;;;1.3;1;;;;;;;-1.93;79.90234;925.5675;;;;
2021/01/01 04:46:18;;;;;;;0.9;0.7;;;;;;;-1.87;79.1709;925.4387;;;;
2021/01/01 04:48:44;;;;;;;4.3;1.2;;;;;;;-1.95;79.85645;925.5544;;;;
2021/01/01 04:51:09;;;;;;;1.2;1.1;;;;;;;-1.98;79.59473;925.5267;;;;
2021/01/01 04:53:35;;;;;;;2;1.1;;;;;;;-2.08;80.25391;925.5474;;;;
2021/01/01 04:56:01;;;;;;;2.2;1.7;;;;;;;-1.98;79.95996;925.6103;;;;
2021/01/01 04:58:28;;;;;;;1.9;1.3;;;;;;;-1.84;79.54199;925.5294;;;;
2021/01/01 05:00:53;;;;;;;1.3;1.1;;;;;;;-1.84;79.33301;925.5951;;;;
2021/01/01 05:03:20;;;;;;;1.7;1.1;;;;;;;-1.68;78.79785;925.532;;;;
2021/01/01 05:05:45;;;;;;;1.3;1;;;;;;;-1.71;78.6582;925.5108;;;;
2021/01/01 05:08:12;;;;;;;25.6;10.7;;;;;;;-1.62;78.13184;925.6644;;;;
2021/01/01 05:10:42;;;;;;;7.8;4.9;;;;;;;-1.53;77.85938;925.6083;;;;
2021/01/01 05:13:08;;;;;;;17.9;8.5;;;;;;;-1.82;78.71582;925.6072;;;;
2021/01/01 05:15:34;;;;;;;3.6;1.6;;;;;;;-1.7;78.36035;925.6233;;;;
2021/01/01 05:18:00;;;;;;;0.5;0.5;;;;;;;-1.76;78.23926;925.5808;;;;
2021/01/01 05:20:27;;;;;;;0.8;0.8;;;;;;;-1.53;75.40723;925.4851;;;;
2021/01/01 05:22:51;;;;;;;1.9;1.3;;;;;;;-1.37;75.65625;925.4903;;;;
2021/01/01 05:25:20;;;;;;;0.6;0.6;;;;;;;-1.27;75.49609;925.5499;;;;
2021/01/01 05:27:45;;;;;;;0.8;0.8;;;;;;;-1.31;75.12402;925.5222;;;;
2021/01/01 05:30:13;;;;;;;1.4;1;;;;;;;-1.31;75.90137;925.5502;;;;
2021/01/01 05:32:38;;;;;;;1.3;0.4;;;;;;;-1.49;75.89063;925.5067;;;;
2021/01/01 05:35:05;;;;;;;0.3;0.3;;;;;;;-1.56;76.94434;925.6355;;;;
2021/01/01 05:37:30;;;;;;;0.6;0.6;;;;;;;-1.81;77.03125;925.5859;;;;
2021/01/01 05:39:55;;;;;;;1.1;0.7;;;;;;;-1.85;77.23535;925.6072;;;;
2021/01/01 05:42:20;;;;;;;1.2;1.1;;;;;;;-2.09;78.83105;925.5773;;;;
2021/01/01 05:44:45;;;;;;;1.6;1.2;;;;;;;-2.24;79.96777;925.6818;;;;
2021/01/01 05:47:10;;;;;;;2;1.1;;;;;;;-2.15;79.85156;925.6557;;;;
2021/01/01 05:49:36;;;;;;;1.5;1.2;;;;;;;-2.16;79.7832;925.6694;;;;
2021/01/01 05:52:01;;;;;;;0.8;0.8;;;;;;;-1.94;79.31445;925.7351;;;;
2021/01/01 05:54:29;;;;;;;1.1;1;;;;;;;-1.93;78.89355;925.7968;;;;
2021/01/01 05:56:54;;;;;;;2.8;1;;;;;;;-1.82;78.56055;925.845;;;;
2021/01/01 05:59:19;;;;;;;1.2;1;;;;;;;-1.71;78.11621;925.7972;;;;
2021/01/01 06:01:45;;;;;;;2;1.5;;;;;;;-1.65;77.9375;925.9277;;;;
2021/01/01 06:04:10;;;;;;;1.1;1;;;;;;;-1.68;78.02148;925.9097;;;;
2021/01/01 06:06:37;;;;;;;4.9;2.6;;;;;;;-1.68;77.41113;925.9238;;;;
2021/01/01 06:09:02;;;;;;;4;1.2;;;;;;;-2.02;78.20215;925.9253;;;;
2021/01/01 06:11:29;;;;;;;3.5;1.7;;;;;;;-1.66;77.47949;925.9437;;;;
2021/01/01 06:13:54;;;;;;;2.5;1.3;;;;;;;-1.6;76.80469;925.8994;;;;
2021/01/01 06:16:20;;;;;;;2.2;1.5;;;;;;;-1.61;76.93457;925.9744;;;;
2021/01/01 06:18:45;;;;;;;1.9;1.2;;;;;;;-1.57;76.52148;925.9972;;;;
2021/01/01 06:21:11;;;;;;;2.2;1.4;;;;;;;-1.74;76.93359;926.0317;;;;
2021/01/01 06:23:36;;;;;;;0.7;0.7;;;;;;;-1.83;77.33887;926.0461;;;;
2021/01/01 06:26:01;;;;;;;2.1;1.3;;;;;;;-1.98;77.93164;926.1007;;;;
2021/01/01 06:28:27;;;;;;;3.4;1.3;;;;;;;-1.86;77.875;926.0919;;;;
2021/01/01 06:30:52;;;;;;;1.4;1;;;;;;;-1.74;77.10938;926.1399;;;;
2021/01/01 06:33:18;;;;;;;2.5;1.5;;;;;;;-1.86;77.89746;926.1222;;;;
2021/01/01 06:35:43;;;;;;;2.4;1.1;;;;;;;-2.15;78.59766;926.1483;;;;
2021/01/01 06:38:09;;;;;;;2.3;1.6;;;;;;;-2.07;78.38184;926.1817;;;;
2021/01/01 06:40:38;;;;;;;2.4;1.6;;;;;;;-2.31;78.90137;926.2772;;;;
2021/01/01 06:43:04;;;;;;;1.3;1.2;;;;;;;-2.28;79.30566;926.2654;;;;
2021/01/01 06:45:35;;;;;;;1.9;1.7;;;;;;;-2.07;78.75684;926.325;;;;
2021/01/01 06:47:57;;;;;;;3;1.3;;;;;;;-2.15;78.78809;926.2592;;;;
2021/01/01 06:50:22;;;;;;;2.2;2;;;;;;;-2.09;78.59863;926.3033;;;;
2021/01/01 06:52:51;;;;;;;2.3;1.1;;;;;;;-1.93;78.25391;926.2642;;;;
2021/01/01 06:55:16;;;;;;;2.6;1.3;;;;;;;-1.86;77.875;926.2354;;;;
2021/01/01 06:57:41;;;;;;;2.1;1.4;;;;;;;-2.06;78.2373;926.3401;;;;
2021/01/01 07:00:06;;;;;;;2.8;1.7;;;;;;;-1.91;77.84473;926.3124;;;;
2021/01/01 07:02:32;;;;;;;2.7;1.8;;;;;;;-2.19;78.93262;926.3642;;;;
2021/01/01 07:04:58;;;;;;;1.9;1.8;;;;;;;-1.97;78.41016;926.3733;;;;
2021/01/01 07:07:23;;;;;;;8.6;2.3;;;;;;;-2.22;78.58594;926.3217;;;;
2021/01/01 07:09:50;;;;;;;6.8;2.6;;;;;;;-2.21;78.73145;926.4313;;;;
2021/01/01 07:12:15;;;;;;;2.4;1.9;;;;;;;-2.21;78.84082;926.4551;;;;
2021/01/01 07:14:40;;;;;;;5;2.5;;;;;;;-2.12;78.64844;926.4684;;;;
2021/01/01 07:17:05;;;;;;;5.2;3.1;;;;;;;-2.05;78.39453;926.5168;;;;
2021/01/01 07:19:30;;;;;;;4.9;2.9;;;;;;;-2.09;78.69824;926.4741;;;;
2021/01/01 07:21:55;;;;;;;5.2;3;;;;;;;-1.93;78.24121;926.5339;;;;
2021/01/01 07:24:21;;;;;;;3.3;2.2;;;;;;;-1.87;77.61914;926.49;;;;
2021/01/01 07:26:46;;;;;;;2.9;1.6;;;;;;;-1.93;77.58691;926.6306;;;;
2021/01/01 07:29:12;;;;;;;3.5;1.8;;;;;;;-2.11;78.25098;926.5842;;;;
2021/01/01 07:31:37;;;;;;;0.9;0.8;;;;;;;-2.2;78.65527;926.6299;;;;
2021/01/01 07:34:05;;;;;;;3.7;1.9;;;;;;;-2.19;78.97754;926.5966;;;;
2021/01/01 07:36:30;;;;;;;7.9;3.3;;;;;;;-2.19;78.79004;926.6809;;;;
2021/01/01 07:38:55;;;;;;;4.4;2.4;;;;;;;-2.05;78.63965;926.6456;;;;
2021/01/01 07:41:20;;;;;;;3.5;2.2;;;;;;;-1.87;78.10645;926.6819;;;;
2021/01/01 07:43:46;;;;;;;2.8;1.9;;;;;;;-1.66;77.54785;926.7141;;;;
2021/01/01 07:46:11;;;;;;;4.3;2.7;;;;;;;-1.45;76.72168;926.6242;;;;
2021/01/01 07:48:38;;;;;;;2.4;1.6;;;;;;;-1.52;76.60742;926.7059;;;;
2021/01/01 07:51:03;;;;;;;2;1.5;;;;;;;-1.5;77.12305;926.7371;;;;
2021/01/01 07:53:29;;;;;;;3.3;1.9;;;;;;;-1.24;76.27148;926.7122;;;;
2021/01/01 07:55:54;;;;;;;3.4;2.5;;;;;;;-1.03;75.66211;926.7115;;;;
2021/01/01 07:58:20;;;;;;;5.1;2.2;;;;;;;-0.88;74.6123;926.7505;;;;
2021/01/01 08:00:52;;;;;;;5.1;3.2;;;;;;;-0.89;73.32129;926.7922;;;;
2021/01/01 08:03:18;;;;;;;3.8;2.5;;;;;;;-0.63;72.99902;926.793;;;;
2021/01/01 08:05:43;;;;;;;13.6;4.9;;;;;;;-0.47;72.74805;926.75;;;;
2021/01/01 08:08:12;;;;;;;7.6;3.9;;;;;;;-0.35;72.50293;926.7978;;;;
2021/01/01 08:10:40;;;;;;;6.8;3.8;;;;;;;-0.2;72.07227;926.82;;;;
2021/01/01 08:13:06;;;;;;;7.3;2.8;;;;;;;-0.25;71.96289;926.8555;;;;
2021/01/01 08:15:32;;;;;;;4.6;2.1;;;;;;;-0.36;71.78711;926.9069;;;;
2021/01/01 08:17:58;;;;;;;2.9;2.2;;;;;;;-0.74;72.90137;926.9934;;;;
2021/01/01 08:20:23;;;;;;;4.4;2.9;;;;;;;-0.45;72.19629;926.9695;;;;
2021/01/01 08:22:49;;;;;;;4.4;2.3;;;;;;;-0.11;71.26172;927.0111;;;;
2021/01/01 08:25:14;;;;;;;4.6;2;;;;;;;0.31;69.72852;927.0742;;;;
2021/01/01 08:27:41;;;;;;;9.4;3.4;;;;;;;0.63;67.80664;927.0768;;;;
2021/01/01 08:30:06;;;;;;;8;3;;;;;;;1.13;67.22656;927.097;;;;
2021/01/01 08:32:32;;;;;;;2.5;1.4;;;;;;;1.8;62.74609;927.0887;;;;
2021/01/01 08:34:59;;;;;;;2.7;1.7;;;;;;;2.8;58.19824;927.1619;;;;
2021/01/01 08:37:24;;;;;;;1.8;1.2;;;;;;;4.27;52.87305;927.1594;;;;
2021/01/01 08:39:49;;;;;;;2.1;1.3;;;;;;;5.55;50.25586;927.1202;;;;
2021/01/01 08:42:14;;;;;;;2.1;1.1;;;;;;;6.9;46.03418;927.1998;;;;
2021/01/01 08:44:39;;;;;;;0.7;0.7;;;;;;;7.46;44.22363;927.176;;;;
2021/01/01 08:47:06;;;;;;;2.8;1.5;;;;;;;7.94;42.68262;927.1973;;;;
2021/01/01 08:49:31;;;;;;;0.8;0.6;;;;;;;7.4;43.10645;927.2618;;;;
2021/01/01 08:51:56;;;;;;;1.1;0.9;;;;;;;6.75;43.82129;927.3078;;;;
2021/01/01 08:54:24;;;;;;;1.4;0.9;;;;;;;6.25;45.43262;927.3182;;;;
2021/01/01 08:56:49;;;;;;;1.2;0.9;;;;;;;5.68;46.5459;927.3128;;;;
2021/01/01 08:59:14;;;;;;;3.2;1.3;;;;;;;5.19;47.69922;927.3762;;;;
2021/01/01 09:01:39;;;;;;;3.2;1.2;;;;;;;4.82;48.81836;927.3524;;;;
2021/01/01 09:04:08;;;;;;;4.5;2;;;;;;;4.53;50.97949;927.4755;;;;
2021/01/01 09:06:37;;;;;;;0.7;0.7;;;;;;;3.97;51.72363;927.4142;;;;
2021/01/01 09:09:04;;;;;;;1.2;1;;;;;;;3.58;54.10254;927.4472;;;;
2021/01/01 09:11:29;;;;;;;1.1;1;;;;;;;2.54;58.14941;927.4796;;;;
2021/01/01 09:13:54;;;;;;;0.8;0.8;;;;;;;2.4;58.06445;927.5811;;;;
2021/01/01 09:16:20;;;;;;;2.4;1.2;;;;;;;2.6;57.53027;927.572;;;;
2021/01/01 09:18:45;;;;;;;2.9;1.4;;;;;;;2.67;58.75;927.5927;;;;
2021/01/01 09:21:10;;;;;;;1.1;1;;;;;;;2.56;58.52344;927.5572;;;;
2021/01/01 09:23:35;;;;;;;2.5;0.8;;;;;;;2.78;58.09473;927.639;;;;
2021/01/01 09:26:00;;;;;;;1.4;1;;;;;;;2.88;56.24512;927.5918;;;;
2021/01/01 09:28:28;;;;;;;0.8;0.8;;;;;;;2.8;55.72949;927.6055;;;;
2021/01/01 09:30:53;;;;;;;0.9;0.6;;;;;;;2.89;57.02148;927.6739;;;;
2021/01/01 09:33:20;;;;;;;2;1.2;;;;;;;3;56.5293;927.6069;;;;
2021/01/01 09:35:44;;;;;;;1;0.9;;;;;;;2.95;56.19824;927.5885;;;;
2021/01/01 09:38:09;;;;;;;0.5;0.5;;;;;;;2.69;57.76855;927.5924;;;;
2021/01/01 09:40:43;;;;;;;1;0.7;;;;;;;2.9;57.45996;927.6262;;;;
2021/01/01 09:43:11;;;;;;;1.6;1;;;;;;;2.88;57.07617;927.595;;;;
2021/01/01 09:45:38;;;;;;;1.1;0.8;;;;;;;2.89;56.17969;927.6008;;;;
2021/01/01 09:48:04;;;;;;;0.5;0.5;;;;;;;2.97;56.17871;927.5646;;;;
2021/01/01 09:50:28;;;;;;;1;0.8;;;;;;;2.86;57.39746;927.6495;;;;
2021/01/01 09:52:54;;;;;;;0.6;0.6;;;;;;;2.67;59.32227;927.6619;;;;
2021/01/01 09:55:20;;;;;;;1.1;0.9;;;;;;;2.64;59.8125;927.7084;;;;
2021/01/01 09:57:46;;;;;;;1;0.9;;;;;;;2.78;58.35254;927.6736;;;;
2021/01/01 10:00:15;;;;;;;1.3;0.9;;;;;;;2.72;58.67871;927.666;;;;
2021/01/01 10:02:41;;;;;;;1;0.8;;;;;;;2.79;58.10547;927.6793;;;;
2021/01/01 10:05:06;;;;;;;1.2;1.1;;;;;;;2.89;56.97656;927.6905;;;;
2021/01/01 10:07:32;;;;;;;1.2;1;;;;;;;2.86;57.48828;927.7078;;;;
2021/01/01 10:09:57;;;;;;;1.5;1.3;;;;;;;2.96;56.23438;927.6895;;;;
2021/01/01 10:12:22;;;;;;;1.4;0.9;;;;;;;3.03;55.33398;927.6588;;;;
2021/01/01 10:14:50;;;;;;;0.9;0.8;;;;;;;3.02;54.41309;927.6807;;;;
2021/01/01 10:17:17;;;;;;;0.7;0.7;;;;;;;3.17;54.37695;927.6947;;;;
2021/01/01 10:19:42;;;;;;;2;0.9;;;;;;;3.3;54.25781;927.6495;;;;
2021/01/01 10:22:07;;;;;;;1.5;1.1;;;;;;;3.44;53.08594;927.6674;;;;
2021/01/01 10:24:33;;;;;;;1.4;1.2;;;;;;;3.52;52.45605;927.6682;;;;
2021/01/01 10:26:58;;;;;;;1.5;0.7;;;;;;;3.56;50.9209;927.6326;;;;
2021/01/01 10:29:23;;;;;;;0.4;0.4;;;;;;;2.72;52.55762;927.6135;;;;
2021/01/01 10:31:51;;;;;;;1;0.6;;;;;;;3.25;53.4873;927.5723;;;;
2021/01/01 10:34:16;;;;;;;1.2;0.6;;;;;;;3.5;52.1377;927.5087;;;;
2021/01/01 10:36:42;;;;;;;1.5;0.8;;;;;;;3.54;50.28906;927.4692;;;;
2021/01/01 10:39:07;;;;;;;0.5;0.5;;;;;;;3.51;50.94824;927.4192;;;;
2021/01/01 10:41:32;;;;;;;4.3;1;;;;;;;3.22;52.01367;927.4719;;;;
2021/01/01 10:43:58;;;;;;;0.7;0.7;;;;;;;3.37;52.80762;927.4706;;;;
2021/01/01 10:46:24;;;;;;;1.5;0.8;;;;;;;3.6;51.9707;927.4113;;;;
2021/01/01 10:48:49;;;;;;;2;0.8;;;;;;;3.68;51.98047;927.4358;;;;
2021/01/01 10:51:15;;;;;;;1.3;1.1;;;;;;;3.64;52.2793;927.4462;;;;
2021/01/01 10:53:40;;;;;;;1.9;1.1;;;;;;;3.63;52.17578;927.387;;;;
2021/01/01 10:56:07;;;;;;;1.4;0.8;;;;;;;3.64;52.2666;927.4029;;;;
2021/01/01 10:58:32;;;;;;;2.9;1;;;;;;;3.43;50.37695;927.365;;;;
2021/01/01 11:00:58;;;;;;;0.8;0.8;;;;;;;3.31;52.6748;927.3483;;;;
2021/01/01 11:03:24;;;;;;;1.7;0.9;;;;;;;3.23;53.03613;927.3525;;;;
2021/01/01 11:05:50;;;;;;;3.8;0.7;;;;;;;3.18;51.48047;927.2646;;;;
2021/01/01 11:08:16;;;;;;;1.5;0.8;;;;;;;3.26;51.02051;927.243;;;;
2021/01/01 11:10:48;;;;;;;1.6;0.6;;;;;;;3.35;51.47949;927.1878;;;;
2021/01/01 11:13:16;;;;;;;1;0.8;;;;;;;3.42;51.39844;927.2137;;;;
2021/01/01 12:24:01;;;;;;;3.6;1.2;;;;;;;3.95;55.31934;926.517;;;;
2021/01/01 12:26:16;;;;;;;3.7;1.5;;;;;;;3.92;55.96777;926.6316;;;;
2021/01/01 12:28:42;;;;;;;1;0.8;;;;;;;3.8;56.64941;926.5944;;;;
2021/01/01 12:31:07;;;;;;;2.1;1.6;;;;;;;3.93;56.79004;926.6253;;;;
2021/01/01 12:33:34;;;;;;;1.7;1;;;;;;;3.95;57.07324;926.5634;;;;
2021/01/01 12:35:59;;;;;;;3.2;1.5;;;;;;;3.94;58.28613;926.5176;;;;
2021/01/01 12:38:25;;;;;;;2.1;1.4;;;;;;;3.58;60.58496;926.5005;;;;
2021/01/01 12:40:53;;;;;;;1.6;1.1;;;;;;;3.74;60.41699;926.4955;;;;
2021/01/01 12:43:20;;;;;;;1.4;1;;;;;;;3.86;60.75977;926.4802;;;;
2021/01/01 12:45:43;;;;;;;1.6;1.3;;;;;;;3.85;61.64648;926.4266;;;;
2021/01/01 12:48:09;;;;;;;2.6;1.2;;;;;;;3.92;62.21777;926.5016;;;;
2021/01/01 12:50:34;;;;;;;2.4;1.2;;;;;;;3.97;62.03418;926.4692;;;;
2021/01/01 12:52:59;;;;;;;1.6;1.1;;;;;;;3.89;62;926.4941;;;;
2021/01/01 12:55:24;;;;;;;2.1;1.5;;;;;;;3.77;63.0293;926.466;;;;
2021/01/01 12:57:53;;;;;;;2.1;1.1;;;;;;;3.71;63.63672;926.4855;;;;
2021/01/01 13:00:23;;;;;;;4.3;1.8;;;;;;;3.91;63.12793;926.4841;;;;
2021/01/01 13:02:48;;;;;;;2.1;1.3;;;;;;;3.73;63.36035;926.4417;;;;
2021/01/01 13:05:13;;;;;;;5.7;1.2;;;;;;;3.85;63.49023;926.4053;;;;
2021/01/01 13:07:42;;;;;;;1.5;1.2;;;;;;;3.99;63.16113;926.501;;;;
2021/01/01 13:10:06;;;;;;;1.8;1.1;;;;;;;3.76;63.94824;926.5012;;;;
2021/01/01 13:12:31;;;;;;;1.1;0.9;;;;;;;3.82;63.59668;926.4355;;;;
2021/01/01 13:14:56;;;;;;;2.3;1.5;;;;;;;4;62.92676;926.4539;;;;
2021/01/01 13:17:22;;;;;;;2.2;1.2;;;;;;;4.04;63.43945;926.4107;;;;
2021/01/01 13:19:47;;;;;;;1;0.8;;;;;;;4.07;63.22852;926.5347;;;;
2021/01/01 13:22:12;;;;;;;2.8;1.1;;;;;;;4.1;62.46973;926.5242;;;;
2021/01/01 13:24:37;;;;;;;1;0.9;;;;;;;4.23;62.30762;926.5255;;;;
2021/01/01 13:27:06;;;;;;;6.6;1.3;;;;;;;4.15;62.29688;926.551;;;;
2021/01/01 13:29:31;;;;;;;1.7;1.2;;;;;;;4.28;62.19238;926.5239;;;;
2021/01/01 13:31:56;;;;;;;1.1;0.9;;;;;;;4.26;62.00977;926.5079;;;;
2021/01/01 13:34:24;;;;;;;3.6;1;;;;;;;4.54;61.43164;926.4866;;;;
2021/01/01 13:36:49;;;;;;;1.6;1;;;;;;;5.74;58.14941;926.4565;;;;
2021/01/01 13:39:14;;;;;;;2.8;1.1;;;;;;;6.24;55.48145;926.5783;;;;
2021/01/01 13:41:39;;;;;;;0.7;0.7;;;;;;;6.61;54.11426;926.4992;;;;
2021/01/01 13:44:05;;;;;;;1.8;1.1;;;;;;;7.08;52.95117;926.5583;;;;
2021/01/01 13:46:33;;;;;;;1.3;0.7;;;;;;;6.7;53.36719;926.5356;;;;
2021/01/01 13:48:57;;;;;;;1.6;0.6;;;;;;;6.57;53.89453;926.6066;;;;
2021/01/01 13:51:22;;;;;;;2.5;1.2;;;;;;;5.96;55.48926;926.6152;;;;
2021/01/01 13:53:49;;;;;;;1.2;0.7;;;;;;;5.55;57.52441;926.6181;;;;
2021/01/01 13:56:14;;;;;;;1;0.9;;;;;;;5.38;59.04688;926.6445;;;;
2021/01/01 13:58:41;;;;;;;1.6;1;;;;;;;5.63;58.87891;926.6064;;;;
2021/01/01 14:01:06;;;;;;;1.4;1;;;;;;;5.85;57.80176;926.6962;;;;
2021/01/01 14:03:31;;;;;;;1.4;1;;;;;;;5.9;57.93359;926.644;;;;
2021/01/01 14:05:59;;;;;;;0.6;0.6;;;;;;;5.54;58.88867;926.7349;;;;
2021/01/01 14:08:24;;;;;;;1.8;1.2;;;;;;;4.86;61.72363;926.7993;;;;
2021/01/01 14:10:56;;;;;;;2.1;1.2;;;;;;;4.83;62.09277;926.8392;;;;
2021/01/01 14:13:20;;;;;;;1.7;0.9;;;;;;;4.83;62.66602;926.8242;;;;
2021/01/01 14:15:46;;;;;;;1;0.9;;;;;;;4.35;64.71191;926.8352;;;;
2021/01/01 14:18:12;;;;;;;2.2;1.2;;;;;;;4.55;64.4502;926.8099;;;;
2021/01/01 14:20:37;;;;;;;1.3;0.7;;;;;;;4.52;65.33496;926.8764;;;;
2021/01/01 14:23:03;;;;;;;1.6;1;;;;;;;4.27;66.72461;926.8656;;;;
2021/01/01 14:25:28;;;;;;;1.4;0.8;;;;;;;4.04;68.03906;926.9313;;;;
2021/01/01 14:27:55;;;;;;;0.7;0.7;;;;;;;3.97;68.45508;926.9913;;;;
2021/01/01 14:30:20;;;;;;;1.1;1;;;;;;;3.77;69.92773;926.9059;;;;
2021/01/01 14:32:47;;;;;;;2.4;1.2;;;;;;;3.43;71.70313;926.9913;;;;
2021/01/01 14:35:12;;;;;;;2.2;1.2;;;;;;;2.84;74.49707;927.0455;;;;
2021/01/01 14:37:37;;;;;;;1.6;1.1;;;;;;;3.21;73.63086;927.0469;;;;
2021/01/01 14:40:02;;;;;;;1.4;1.3;;;;;;;2.98;74.79004;927.1002;;;;
2021/01/01 14:42:27;;;;;;;2.5;1;;;;;;;2.91;75.20508;927.1294;;;;
2021/01/01 14:44:53;;;;;;;2.3;1.3;;;;;;;3.07;74.49219;927.0692;;;;
2021/01/01 14:47:18;;;;;;;1.6;1.1;;;;;;;2.97;74.64453;927.0528;;;;
2021/01/01 14:49:43;;;;;;;3.6;1.5;;;;;;;3.02;74.55176;927.0273;;;;
2021/01/01 14:52:08;;;;;;;4.1;1.4;;;;;;;2.98;75.02734;927.1356;;;;
2021/01/01 14:54:33;;;;;;;2.5;1.3;;;;;;;2.72;76.24805;927.171;;;;
2021/01/01 14:57:00;;;;;;;3.2;1.1;;;;;;;2.87;75.86035;927.1869;;;;
2021/01/01 14:59:25;;;;;;;1.7;1.2;;;;;;;3.02;75.16895;927.1578;;;;
2021/01/01 15:01:50;;;;;;;1.8;1.2;;;;;;;3;74.89648;927.1909;;;;
2021/01/01 15:04:15;;;;;;;1.7;1.2;;;;;;;2.58;76.54688;927.1905;;;;
2021/01/01 15:06:40;;;;;;;2.7;1.2;;;;;;;2.55;76.81152;927.1561;;;;
2021/01/01 15:09:05;;;;;;;2.8;1.5;;;;;;;2.73;76.2627;927.2019;;;;
2021/01/01 15:11:31;;;;;;;1.5;1.2;;;;;;;2.67;76.20605;927.1708;;;;
2021/01/01 15:13:56;;;;;;;1;0.9;;;;;;;2.49;77.04688;927.2877;;;;
2021/01/01 15:16:22;;;;;;;3.4;1.3;;;;;;;2.48;76.67676;927.3126;;;;
2021/01/01 15:18:49;;;;;;;1.6;1;;;;;;;2.64;76.13281;927.3438;;;;
2021/01/01 15:21:14;;;;;;;0.9;0.6;;;;;;;2.68;75.55762;927.3391;;;;
2021/01/01 15:23:43;;;;;;;1.5;1.1;;;;;;;2.78;74.81152;927.3372;;;;
2021/01/01 15:26:08;;;;;;;1.8;1.4;;;;;;;2.81;74.36914;927.3358;;;;
2021/01/01 15:28:35;;;;;;;1;0.9;;;;;;;2.68;74.56055;927.4241;;;;
2021/01/01 15:31:00;;;;;;;1;0.8;;;;;;;2.69;74.40332;927.4076;;;;
2021/01/01 15:33:25;;;;;;;1.3;1.1;;;;;;;2.6;75.29492;927.4306;;;;
2021/01/01 15:35:50;;;;;;;1.9;1;;;;;;;2.42;76.31641;927.4424;;;;
2021/01/01 15:38:18;;;;;;;2.5;1.1;;;;;;;2.36;76.84473;927.4973;;;;
2021/01/01 15:40:50;;;;;;;1.5;1.3;;;;;;;2.43;76.8457;927.5008;;;;
2021/01/01 15:43:15;;;;;;;2.2;1.4;;;;;;;2.33;77.36621;927.5407;;;;
2021/01/01 15:45:40;;;;;;;4.2;1.4;;;;;;;2.25;77.87695;927.4462;;;;
2021/01/01 15:48:07;;;;;;;2.7;1.3;;;;;;;2.35;77.37988;927.5467;;;;
2021/01/01 15:50:32;;;;;;;5.4;2.3;;;;;;;2.3;77.30469;927.4992;;;;
2021/01/01 15:52:57;;;;;;;2.7;2.1;;;;;;;2.23;77.7959;927.4081;;;;
2021/01/01 15:55:22;;;;;;;5.5;1.9;;;;;;;2.29;77.88379;927.5053;;;;
2021/01/01 15:57:47;;;;;;;2.4;1.1;;;;;;;2.36;77.8623;927.4879;;;;
2021/01/01 16:00:16;;;;;;;2.5;1.4;;;;;;;2.24;78.27734;927.4467;;;;
2021/01/01 16:02:44;;;;;;;2.4;1.5;;;;;;;2.07;79.09766;927.6021;;;;
2021/01/01 16:05:09;;;;;;;1.6;1.1;;;;;;;2.17;79.15039;927.5839;;;;
2021/01/01 16:07:34;;;;;;;1.1;1;;;;;;;2.27;78.82129;927.6155;;;;
2021/01/01 16:09:59;;;;;;;3.3;1.4;;;;;;;2.33;78.31641;927.6003;;;;
2021/01/01 16:12:25;;;;;;;1.1;1;;;;;;;2.34;78.24121;927.6486;;;;
2021/01/01 16:14:50;;;;;;;3.3;0.9;;;;;;;2.42;77.97559;927.5862;;;;
2021/01/01 16:17:15;;;;;;;3.2;1.6;;;;;;;2.29;78.56738;927.6764;;;;
2021/01/01 16:19:41;;;;;;;1.9;1.6;;;;;;;2.08;79.36621;927.7325;;;;
2021/01/01 16:22:06;;;;;;;2.9;1.7;;;;;;;1.96;80.28516;927.8079;;;;
2021/01/01 16:24:33;;;;;;;2.6;1.8;;;;;;;1.85;80.59961;927.6969;;;;
2021/01/01 16:26:58;;;;;;;2.9;1.9;;;;;;;1.72;81.26953;927.6959;;;;
2021/01/01 16:29:23;;;;;;;2.7;2.1;;;;;;;1.78;81.11328;927.7169;;;;
2021/01/01 16:31:48;;;;;;;1.5;1.3;;;;;;;1.71;81.44434;927.7228;;;;
2021/01/01 16:34:17;;;;;;;2.4;1.5;;;;;;;1.63;82.43555;927.8033;;;;
2021/01/01 16:36:39;;;;;;;1.9;1.4;;;;;;;1.63;82.47266;927.8639;;;;
2021/01/01 16:39:04;;;;;;;6.4;1.8;;;;;;;1.64;82.54004;927.7769;;;;
2021/01/01 16:41:29;;;;;;;1.9;1.6;;;;;;;1.79;81.86523;927.9055;;;;
2021/01/01 16:43:54;;;;;;;4.1;2.2;;;;;;;1.88;81.56934;927.9175;;;;
2021/01/01 16:46:19;;;;;;;1.8;1.5;;;;;;;1.94;81.06445;927.8725;;;;